Time;durP1;ratioP1;P1;durP2;ratioP2;P2;SDS_P1;SDS_P2;PMS_P1;PMS_P2;Temp;Humidity;BMP_temperature;BMP_pressure;BME280_temperature;BME280_humidity;BME280_pressure;Samples;Min_cycle;Max_cycle;Signal;HPM_P1;HPM_P2
2022/07/11 00:02:15;;;;;;;4.55;1.75;;;11.10;99.90;;;;;;5034936;28;20025;-66
2022/07/11 00:04:43;;;;;;;3.92;1.50;;;11.10;99.90;;;;;;5034321;28;20021;-66
2022/07/11 00:07:10;;;;;;;6.45;1.60;;;11.10;99.90;;;;;;5034134;28;20030;-66
2022/07/11 00:09:38;;;;;;;6.57;1.58;;;11.20;99.90;;;;;;5034010;28;20053;-65
2022/07/11 00:12:06;;;;;;;6.70;2.42;;;11.00;99.90;;;;;;5035116;28;20013;-66
2022/07/11 00:14:34;;;;;;;3.83;1.65;;;11.00;99.90;;;;;;5026779;28;20015;-66
2022/07/11 00:17:01;;;;;;;4.65;1.85;;;11.10;99.90;;;;;;5021202;28;20102;-66
2022/07/11 00:19:29;;;;;;;5.90;1.52;;;11.20;99.90;;;;;;5029283;28;20006;-66
2022/07/11 00:21:56;;;;;;;3.47;1.70;;;11.30;99.90;;;;;;5022530;28;20024;-66
2022/07/11 00:24:24;;;;;;;4.82;1.80;;;11.30;99.90;;;;;;5031248;28;20022;-66
2022/07/11 00:26:52;;;;;;;7.05;1.85;;;11.30;99.90;;;;;;5026566;28;20022;-66
2022/07/11 00:29:19;;;;;;;6.10;2.03;;;11.20;99.90;;;;;;5030439;28;20022;-66
2022/07/11 00:31:47;;;;;;;6.38;1.77;;;11.30;99.90;;;;;;5032016;28;20014;-66
2022/07/11 00:34:15;;;;;;;4.63;2.28;;;11.50;99.90;;;;;;5034802;28;20040;-66
2022/07/11 00:36:43;;;;;;;9.60;1.85;;;11.70;99.90;;;;;;5034818;28;20085;-66
2022/07/11 00:39:10;;;;;;;6.97;1.17;;;11.70;99.90;;;;;;5030766;28;20066;-66
2022/07/11 00:41:38;;;;;;;5.97;1.00;;;11.90;99.90;;;;;;5037920;28;20082;-66
2022/07/11 00:44:05;;;;;;;8.13;1.83;;;12.00;99.90;;;;;;5034434;28;20014;-66
2022/07/11 00:46:32;;;;;;;5.43;1.00;;;12.10;99.90;;;;;;5026694;28;20132;-66
2022/07/11 00:49:02;;;;;;;4.15;0.85;;;12.20;99.90;;;;;;5033283;28;20022;-66
2022/07/11 00:51:37;;;;;;;3.38;0.90;;;12.20;99.90;;;;;;5030417;28;20018;-67
2022/07/11 00:54:08;;;;;;;6.43;1.42;;;12.20;99.90;;;;;;5032240;28;20107;-66
2022/07/11 00:56:35;;;;;;;6.03;1.20;;;12.50;99.90;;;;;;5036265;28;20025;-66
2022/07/11 00:59:03;;;;;;;5.53;1.25;;;12.60;99.90;;;;;;5031643;28;20028;-66
2022/07/11 01:01:32;;;;;;;6.72;2.13;;;12.70;99.90;;;;;;5021186;28;20010;-66
2022/07/11 01:03:59;;;;;;;5.13;1.77;;;12.70;99.90;;;;;;5031815;28;20057;-66
2022/07/11 01:06:27;;;;;;;4.43;1.55;;;12.70;99.90;;;;;;5031223;28;20057;-66
2022/07/11 01:08:54;;;;;;;5.72;1.80;;;12.80;99.90;;;;;;5025037;28;20034;-66
2022/07/11 01:11:22;;;;;;;3.05;0.93;;;12.80;99.90;;;;;;5037183;28;20014;-66
2022/07/11 01:13:50;;;;;;;6.47;1.40;;;13.10;99.90;;;;;;5029703;28;20468;-66
2022/07/11 01:16:19;;;;;;;6.30;1.23;;;13.00;99.90;;;;;;5031393;28;20010;-67
2022/07/11 01:18:49;;;;;;;3.58;1.05;;;12.90;99.90;;;;;;5035585;28;20033;-67
2022/07/11 01:21:34;;;;;;;5.15;1.10;;;13.00;99.90;;;;;;5016259;28;20026;-67
2022/07/11 01:24:02;;;;;;;2.08;0.98;;;13.20;99.90;;;;;;5016222;28;20034;-67
2022/07/11 01:26:32;;;;;;;5.25;1.38;;;13.50;99.90;;;;;;5020872;28;20085;-67
2022/07/11 01:29:13;;;;;;;4.72;0.82;;;13.40;99.90;;;;;;5004611;28;20105;-66
2022/07/11 01:31:44;;;;;;;5.78;1.42;;;13.30;99.90;;;;;;5002050;28;20081;-66
2022/07/11 01:34:12;;;;;;;6.43;1.55;;;13.40;99.90;;;;;;5013927;28;20026;-67
2022/07/11 01:36:40;;;;;;;5.32;1.70;;;13.60;99.90;;;;;;5016833;28;20557;-67
2022/07/11 01:39:07;;;;;;;5.28;1.60;;;13.50;99.90;;;;;;5017091;28;20033;-66
2022/07/11 01:41:34;;;;;;;5.38;0.88;;;13.70;99.90;;;;;;5018411;28;20046;-67
2022/07/11 01:44:01;;;;;;;5.75;1.45;;;14.10;99.90;;;;;;5013818;28;20025;-67
2022/07/11 01:46:29;;;;;;;8.10;1.10;;;14.30;99.90;;;;;;5016615;28;20050;-67
2022/07/11 01:48:56;;;;;;;4.78;0.93;;;14.40;99.90;;;;;;5015984;28;20026;-68
2022/07/11 01:51:28;;;;;;;4.22;1.00;;;14.40;99.90;;;;;;5016327;28;20521;-67
2022/07/11 01:53:55;;;;;;;5.35;1.38;;;14.20;99.90;;;;;;5009250;28;20025;-67
2022/07/11 01:56:23;;;;;;;8.98;1.73;;;14.10;99.90;;;;;;5025530;28;20034;-65
2022/07/11 01:58:50;;;;;;;5.07;0.93;;;14.10;99.90;;;;;;5033789;28;20023;-65
2022/07/11 02:01:18;;;;;;;9.95;1.52;;;13.90;99.90;;;;;;5028203;28;20038;-65
2022/07/11 02:03:45;;;;;;;6.43;1.50;;;13.60;99.90;;;;;;5026097;28;20011;-65
2022/07/11 02:06:12;;;;;;;6.40;1.55;;;13.30;99.90;;;;;;5029220;28;20026;-66
2022/07/11 02:08:39;;;;;;;5.28;2.05;;;13.20;99.90;;;;;;5028407;28;20098;-66
2022/07/11 02:11:07;;;;;;;7.95;2.20;;;13.00;99.90;;;;;;5025403;28;20030;-66
2022/07/11 02:13:34;;;;;;;7.55;1.30;;;12.70;99.90;;;;;;5030030;28;20018;-66
2022/07/11 02:16:02;;;;;;;7.22;1.52;;;12.70;99.90;;;;;;5033311;28;20022;-66
2022/07/11 02:18:29;;;;;;;8.00;1.23;;;12.60;99.90;;;;;;5024967;28;20022;-68
2022/07/11 02:20:57;;;;;;;5.18;1.48;;;12.60;99.90;;;;;;5028880;28;20014;-65
2022/07/11 02:23:24;;;;;;;5.20;1.05;;;12.70;99.90;;;;;;5035050;28;20037;-67
2022/07/11 02:25:53;;;;;;;7.03;0.93;;;12.70;99.90;;;;;;5036964;28;20053;-66
2022/07/11 02:28:20;;;;;;;7.32;1.10;;;12.70;99.90;;;;;;5028515;28;20025;-68
2022/07/11 02:30:47;;;;;;;5.57;1.90;;;12.60;99.90;;;;;;5021662;28;20037;-69
2022/07/11 02:33:15;;;;;;;8.45;2.95;;;12.80;99.90;;;;;;5014815;28;20034;-68
2022/07/11 02:35:44;;;;;;;10.52;2.38;;;12.90;99.90;;;;;;5028286;28;20037;-68
2022/07/11 02:38:11;;;;;;;8.93;1.73;;;13.20;99.90;;;;;;5036253;28;20035;-69
2022/07/11 02:40:38;;;;;;;9.27;1.83;;;14.10;99.90;;;;;;5021614;28;20022;-68
2022/07/11 02:43:06;;;;;;;6.38;1.90;;;14.70;99.90;;;;;;5026362;28;20030;-70
2022/07/11 02:45:33;;;;;;;4.60;1.38;;;14.80;99.90;;;;;;5023874;28;20046;-67
2022/07/11 02:48:00;;;;;;;4.70;1.00;;;15.20;99.90;;;;;;5029100;28;20036;-67
2022/07/11 02:50:27;;;;;;;4.93;1.20;;;15.60;99.90;;;;;;5031390;28;20021;-67
2022/07/11 02:52:54;;;;;;;5.18;1.00;;;15.90;99.90;;;;;;5028451;28;20010;-67
2022/07/11 02:55:22;;;;;;;6.38;1.45;;;16.30;99.90;;;;;;5026452;28;20011;-67
2022/07/11 02:57:49;;;;;;;6.00;1.20;;;17.00;99.90;;;;;;5031577;28;20074;-67
2022/07/11 03:00:17;;;;;;;5.22;1.02;;;17.50;99.90;;;;;;5027762;28;20025;-67
2022/07/11 03:02:45;;;;;;;3.92;0.88;;;17.50;99.90;;;;;;5027182;28;20022;-66
2022/07/11 03:05:13;;;;;;;5.82;0.98;;;17.40;99.90;;;;;;5028839;28;20026;-67
2022/07/11 03:07:40;;;;;;;15.38;2.53;;;16.00;99.90;;;;;;5030276;28;20042;-67
2022/07/11 03:10:08;;;;;;;7.28;1.02;;;16.00;99.90;;;;;;5015175;28;20082;-65
2022/07/11 03:12:35;;;;;;;5.88;1.38;;;16.40;99.90;;;;;;5036558;28;20021;-66
2022/07/11 03:15:03;;;;;;;6.18;1.00;;;16.10;99.90;;;;;;5036390;28;20006;-65
2022/07/11 03:17:30;;;;;;;6.47;1.50;;;15.40;99.90;;;;;;5035976;28;20018;-67
2022/07/11 03:19:57;;;;;;;13.02;1.67;;;15.20;99.90;;;;;;5023912;28;20079;-66
2022/07/11 03:22:24;;;;;;;6.97;1.23;;;15.30;99.90;;;;;;5025334;28;20018;-66
2022/07/11 03:24:52;;;;;;;7.50;0.82;;;15.50;99.90;;;;;;5025653;28;20015;-65
2022/07/11 03:27:20;;;;;;;6.05;0.80;;;15.10;99.90;;;;;;5026843;28;20018;-66
2022/07/11 03:29:47;;;;;;;8.23;1.02;;;15.90;99.90;;;;;;5032444;28;20076;-66
2022/07/11 03:32:15;;;;;;;5.40;1.20;;;16.10;99.90;;;;;;5026498;28;20049;-66
2022/07/11 03:35:40;;;;;;;7.38;1.00;;;16.20;99.90;;;;;;5027570;28;20010;-67
2022/07/11 03:37:29;;;;;;;13.20;1.85;;;15.80;99.90;;;;;;5034449;28;20042;-67
2022/07/11 03:39:56;;;;;;;9.00;1.35;;;15.30;99.90;;;;;;5034436;28;20029;-67
2022/07/11 03:42:23;;;;;;;3.35;0.90;;;14.80;99.90;;;;;;5031408;28;20010;-67
2022/07/11 03:44:51;;;;;;;10.77;2.35;;;14.70;99.90;;;;;;5034295;28;20021;-67
2022/07/11 03:47:19;;;;;;;12.05;2.00;;;14.30;99.90;;;;;;5032897;28;20049;-67
2022/07/11 03:49:50;;;;;;;10.10;1.08;;;14.10;99.90;;;;;;5022956;28;20074;-67
2022/07/11 03:52:24;;;;;;;9.00;1.23;;;14.10;99.90;;;;;;5036482;28;20025;-66
2022/07/11 03:54:51;;;;;;;9.13;1.33;;;14.20;99.90;;;;;;5022921;28;20023;-67
2022/07/11 03:57:19;;;;;;;9.77;1.00;;;14.20;99.90;;;;;;5018163;28;20022;-67
2022/07/11 03:59:46;;;;;;;5.80;1.10;;;14.30;99.90;;;;;;5032004;28;20013;-67
2022/07/11 04:02:13;;;;;;;9.40;1.10;;;14.20;99.90;;;;;;5034734;28;20037;-66
2022/07/11 04:04:40;;;;;;;10.20;1.38;;;14.10;99.90;;;;;;5028665;28;20014;-66
2022/07/11 04:07:08;;;;;;;8.75;1.55;;;14.10;99.90;;;;;;5034414;28;20041;-67
2022/07/11 04:09:35;;;;;;;9.95;1.58;;;14.00;99.90;;;;;;5030226;28;20014;-66
2022/07/11 04:12:02;;;;;;;9.68;1.95;;;13.90;99.90;;;;;;5026504;28;20018;-67
2022/07/11 04:14:29;;;;;;;10.77;3.22;;;13.80;99.90;;;;;;5030392;28;20037;-66
2022/07/11 04:16:56;;;;;;;13.80;2.15;;;13.70;99.90;;;;;;5032995;28;20018;-67
2022/07/11 04:19:24;;;;;;;14.18;1.65;;;13.60;99.90;;;;;;5026048;28;20016;-67
2022/07/11 04:21:51;;;;;;;9.57;1.25;;;13.60;99.90;;;;;;5032454;28;20061;-66
2022/07/11 04:24:18;;;;;;;6.38;1.17;;;13.50;99.90;;;;;;5021946;28;20022;-67
2022/07/11 04:26:45;;;;;;;6.03;0.90;;;13.60;99.90;;;;;;5028529;28;20109;-68
2022/07/11 04:29:13;;;;;;;8.73;1.48;;;13.60;99.90;;;;;;5031855;28;20037;-67
2022/07/11 04:31:40;;;;;;;9.00;1.20;;;13.50;99.90;;;;;;5034050;28;20010;-67
2022/07/11 04:34:07;;;;;;;7.35;1.35;;;13.50;99.90;;;;;;5020295;28;20030;-67
2022/07/11 04:36:35;;;;;;;6.05;1.42;;;13.60;99.90;;;;;;5028903;28;20014;-67
2022/07/11 04:39:02;;;;;;;9.68;1.98;;;13.60;99.90;;;;;;5024595;28;20022;-67
2022/07/11 04:41:29;;;;;;;5.90;1.30;;;13.60;99.90;;;;;;5011879;28;20061;-67
2022/07/11 04:43:56;;;;;;;7.75;1.15;;;13.50;99.90;;;;;;5023509;28;20122;-67
2022/07/11 04:46:24;;;;;;;9.88;1.52;;;13.40;99.90;;;;;;5024107;28;20038;-67
2022/07/11 04:48:51;;;;;;;5.90;1.20;;;13.30;99.90;;;;;;5028812;28;20528;-67
2022/07/11 04:51:18;;;;;;;6.55;1.05;;;13.30;99.90;;;;;;5019716;28;20023;-68
2022/07/11 04:53:46;;;;;;;6.20;1.00;;;13.30;99.90;;;;;;5030304;28;20029;-67
2022/07/11 04:56:14;;;;;;;9.20;1.10;;;13.30;99.90;;;;;;5034026;28;20033;-67
2022/07/11 04:58:41;;;;;;;7.88;2.03;;;13.20;99.90;;;;;;5029537;28;20034;-68
2022/07/11 05:01:09;;;;;;;7.07;1.70;;;13.10;99.90;;;;;;5032260;28;20026;-68
2022/07/11 05:03:36;;;;;;;8.32;1.38;;;13.00;99.90;;;;;;5015138;28;20033;-68
2022/07/11 05:06:04;;;;;;;13.48;2.88;;;13.10;99.90;;;;;;5028562;28;20060;-68
2022/07/11 05:08:36;;;;;;;9.43;1.40;;;13.10;99.90;;;;;;5027724;28;20058;-68
2022/07/11 05:11:04;;;;;;;9.50;1.98;;;13.20;99.90;;;;;;5028169;28;20060;-68
2022/07/11 05:13:32;;;;;;;7.80;1.52;;;13.20;99.90;;;;;;5025692;28;20019;-68
2022/07/11 05:15:59;;;;;;;5.57;0.82;;;13.20;99.90;;;;;;5024812;28;20042;-67
2022/07/11 05:18:27;;;;;;;5.22;1.42;;;13.20;99.90;;;;;;5021385;28;20097;-68
2022/07/11 05:20:54;;;;;;;7.03;1.13;;;13.30;99.90;;;;;;5028175;28;20026;-68
2022/07/11 05:23:21;;;;;;;5.05;0.95;;;13.30;99.90;;;;;;5030063;28;20064;-67
2022/07/11 05:25:48;;;;;;;5.93;0.70;;;13.50;99.90;;;;;;5016444;28;20101;-67
2022/07/11 05:28:15;;;;;;;4.55;1.02;;;13.50;99.90;;;;;;5028246;28;20037;-68
2022/07/11 05:30:43;;;;;;;6.93;1.48;;;13.60;99.90;;;;;;5020065;28;20026;-68
2022/07/11 05:33:10;;;;;;;4.88;1.08;;;13.60;99.90;;;;;;5019088;28;20026;-68
2022/07/11 05:35:37;;;;;;;4.80;0.73;;;13.60;99.90;;;;;;5027986;28;20244;-66
2022/07/11 05:38:04;;;;;;;4.82;1.10;;;13.50;99.90;;;;;;5023316;28;20255;-67
2022/07/11 05:40:32;;;;;;;10.52;1.80;;;13.30;99.90;;;;;;5035966;28;20081;-68
2022/07/11 05:43:00;;;;;;;5.97;1.33;;;13.20;99.90;;;;;;5031685;28;20042;-67
2022/07/11 05:45:28;;;;;;;4.10;0.68;;;13.10;99.90;;;;;;5028805;28;20027;-67
2022/07/11 05:47:55;;;;;;;7.10;1.80;;;13.00;99.90;;;;;;5033196;28;20049;-67
2022/07/11 05:50:22;;;;;;;5.30;1.13;;;13.00;99.90;;;;;;5034026;28;20010;-67
2022/07/11 05:52:49;;;;;;;7.68;1.33;;;13.00;99.90;;;;;;5028088;28;20026;-67
2022/07/11 05:55:17;;;;;;;13.45;1.33;;;13.00;99.90;;;;;;5031683;28;20037;-67
2022/07/11 05:57:44;;;;;;;7.47;1.27;;;13.10;99.90;;;;;;5030967;28;20026;-67
2022/07/11 06:00:12;;;;;;;11.35;2.25;;;13.10;99.90;;;;;;5028148;28;20050;-67
2022/07/11 06:02:39;;;;;;;10.07;1.17;;;13.10;99.90;;;;;;5032872;28;20014;-67
2022/07/11 06:05:06;;;;;;;8.63;2.00;;;13.20;99.90;;;;;;5031590;28;20030;-68
2022/07/11 06:10:19;;;;;;;6.20;1.08;;;13.10;99.90;;;;;;5034556;28;20036;-67
2022/07/11 06:12:46;;;;;;;5.38;1.40;;;13.00;99.90;;;;;;5025803;28;20014;-67
2022/07/11 06:15:13;;;;;;;3.85;1.45;;;13.00;99.90;;;;;;5030921;28;20069;-67
2022/07/11 06:17:41;;;;;;;7.57;1.10;;;13.00;99.90;;;;;;5028987;28;20045;-67
2022/07/11 06:20:09;;;;;;;4.03;0.93;;;12.90;99.90;;;;;;5032927;28;20014;-67
2022/07/11 06:22:36;;;;;;;5.57;1.50;;;12.90;99.90;;;;;;5036282;28;20077;-68
2022/07/11 06:25:03;;;;;;;5.28;1.13;;;12.90;99.90;;;;;;5029283;28;20028;-68
2022/07/11 06:27:31;;;;;;;6.75;1.60;;;12.80;99.90;;;;;;5032159;28;20083;-68
2022/07/11 06:29:58;;;;;;;13.43;2.33;;;12.80;99.90;;;;;;5031003;28;20014;-67
2022/07/11 06:32:25;;;;;;;9.02;1.95;;;12.70;99.90;;;;;;5029445;28;20025;-67
2022/07/11 06:34:52;;;;;;;9.75;2.25;;;12.70;99.90;;;;;;5028140;28;20014;-67
2022/07/11 06:37:20;;;;;;;6.30;1.38;;;12.70;99.90;;;;;;5032074;28;20029;-67
2022/07/11 06:39:47;;;;;;;5.20;1.60;;;12.70;99.90;;;;;;5031998;28;20077;-66
2022/07/11 06:42:17;;;;;;;9.77;1.80;;;12.70;99.90;;;;;;5034048;28;20030;-66
2022/07/11 06:44:45;;;;;;;4.85;1.58;;;12.70;99.90;;;;;;5019506;28;20014;-66
2022/07/11 06:47:12;;;;;;;8.93;1.98;;;12.70;99.90;;;;;;5018935;28;20046;-67
2022/07/11 06:49:39;;;;;;;9.13;1.60;;;12.70;99.90;;;;;;5027179;28;20033;-67
2022/07/11 06:52:06;;;;;;;4.78;1.45;;;12.70;99.90;;;;;;5027127;28;20010;-67
2022/07/11 06:54:34;;;;;;;7.20;2.42;;;12.70;99.90;;;;;;5029737;28;20049;-66
2022/07/11 06:57:04;;;;;;;13.20;2.33;;;12.70;99.90;;;;;;5026527;28;20026;-66
2022/07/11 06:59:31;;;;;;;10.88;3.90;;;12.70;99.90;;;;;;5032742;28;20032;-66
2022/07/11 07:01:58;;;;;;;12.70;2.05;;;12.70;99.90;;;;;;5038646;28;20010;-66
2022/07/11 07:04:26;;;;;;;9.52;2.33;;;12.70;99.90;;;;;;5036534;28;20022;-66
2022/07/11 07:06:53;;;;;;;7.63;2.60;;;12.60;99.90;;;;;;5027989;28;20030;-67
2022/07/11 07:09:21;;;;;;;9.35;2.47;;;12.70;99.90;;;;;;5033471;28;20074;-67
2022/07/11 07:11:50;;;;;;;7.95;2.45;;;12.70;99.90;;;;;;5031729;28;20026;-66
2022/07/11 07:14:18;;;;;;;6.32;2.25;;;12.70;99.90;;;;;;5029807;28;20030;-65
2022/07/11 07:16:45;;;;;;;12.20;3.17;;;12.70;99.90;;;;;;5020722;28;20018;-66
2022/07/11 07:19:12;;;;;;;11.05;3.03;;;12.70;99.90;;;;;;5031486;28;20024;-66
2022/07/11 07:21:39;;;;;;;16.15;3.65;;;12.70;99.90;;;;;;5028454;28;20041;-67
2022/07/11 07:24:07;;;;;;;13.27;3.72;;;12.70;99.90;;;;;;5024288;28;20014;-67
2022/07/11 07:26:34;;;;;;;11.07;3.38;;;12.70;99.90;;;;;;5027691;28;20056;-67
2022/07/11 07:29:01;;;;;;;16.02;3.22;;;12.70;99.90;;;;;;5026062;28;20037;-67
2022/07/11 07:31:28;;;;;;;7.35;2.63;;;12.70;99.90;;;;;;5021040;28;20046;-67
2022/07/11 07:33:56;;;;;;;11.25;2.85;;;12.70;99.90;;;;;;5026359;28;20022;-67
2022/07/11 07:36:23;;;;;;;13.68;4.00;;;12.60;99.90;;;;;;5023440;28;20073;-67
2022/07/11 07:38:50;;;;;;;8.95;3.85;;;12.60;99.90;;;;;;5013746;28;20030;-68
2022/07/11 07:41:17;;;;;;;6.18;2.38;;;12.50;99.90;;;;;;5024511;28;20101;-67
2022/07/11 07:43:45;;;;;;;11.30;3.22;;;12.60;99.90;;;;;;5016936;28;20053;-67
2022/07/11 07:46:12;;;;;;;9.40;3.72;;;12.60;99.90;;;;;;5024071;28;20034;-67
2022/07/11 07:48:39;;;;;;;12.80;3.65;;;12.60;99.90;;;;;;5019677;28;20748;-67
2022/07/11 07:51:07;;;;;;;13.57;3.70;;;12.60;99.90;;;;;;5016390;28;20029;-68
2022/07/11 07:53:34;;;;;;;13.15;3.22;;;12.60;99.90;;;;;;5013380;28;20486;-67
2022/07/11 07:56:01;;;;;;;8.93;3.67;;;12.50;99.90;;;;;;5021487;28;20034;-68
2022/07/11 07:58:29;;;;;;;12.15;4.35;;;12.50;99.90;;;;;;5015952;28;20026;-68
2022/07/11 08:03:41;;;;;;;16.83;3.97;;;12.50;99.90;;;;;;5007613;28;20044;-68
2022/07/11 08:06:09;;;;;;;11.93;5.78;;;12.60;99.90;;;;;;5012771;28;20046;-68
2022/07/11 08:08:36;;;;;;;15.20;6.30;;;12.60;99.90;;;;;;5016303;28;20041;-68
2022/07/11 08:11:04;;;;;;;11.98;5.30;;;12.60;99.90;;;;;;5023270;28;20026;-68
2022/07/11 08:13:31;;;;;;;11.95;5.03;;;12.60;99.90;;;;;;5030821;28;20018;-68
2022/07/11 08:15:58;;;;;;;14.73;4.68;;;12.60;99.90;;;;;;5028877;28;20026;-68
2022/07/11 08:18:26;;;;;;;11.02;3.50;;;12.60;99.90;;;;;;5025775;28;20010;-68
2022/07/11 08:20:57;;;;;;;11.20;3.00;;;12.60;99.90;;;;;;5029458;28;20022;-67
2022/07/11 08:23:24;;;;;;;8.02;3.28;;;12.60;99.90;;;;;;5031904;28;20018;-68
2022/07/11 08:25:53;;;;;;;10.18;3.28;;;12.50;99.90;;;;;;5029897;28;20068;-66
2022/07/11 08:28:20;;;;;;;6.70;2.72;;;12.50;99.90;;;;;;5029713;28;20078;-67
2022/07/11 08:30:47;;;;;;;11.43;2.38;;;12.40;99.90;;;;;;5032911;28;20097;-68
2022/07/11 08:33:15;;;;;;;10.25;3.45;;;12.40;99.90;;;;;;5032355;28;20018;-68
2022/07/11 08:35:42;;;;;;;10.15;2.70;;;12.40;99.90;;;;;;5036617;28;20061;-67
2022/07/11 08:38:09;;;;;;;11.05;3.10;;;12.30;99.90;;;;;;5035512;28;20010;-67
2022/07/11 08:40:36;;;;;;;10.50;2.92;;;12.30;99.90;;;;;;5035832;28;20037;-67
2022/07/11 08:43:13;;;;;;;8.50;3.35;;;12.30;99.90;;;;;;5034053;28;20029;-67
2022/07/11 08:45:40;;;;;;;10.85;3.30;;;12.20;99.90;;;;;;5033601;28;20018;-67
2022/07/11 08:48:09;;;;;;;14.02;2.80;;;12.20;99.90;;;;;;5033424;28;20018;-67
2022/07/11 08:50:36;;;;;;;7.22;2.72;;;12.20;99.90;;;;;;5031565;28;20038;-67
2022/07/11 08:53:05;;;;;;;10.05;3.00;;;12.10;99.90;;;;;;5030553;28;20009;-66
2022/07/11 08:55:33;;;;;;;8.73;2.90;;;12.10;99.90;;;;;;5033338;28;20040;-67
2022/07/11 08:58:02;;;;;;;6.22;2.10;;;12.00;99.90;;;;;;5033567;28;20097;-67
2022/07/11 09:00:29;;;;;;;7.93;2.22;;;12.00;99.90;;;;;;5037254;28;20018;-68
2022/07/11 09:02:58;;;;;;;7.82;2.33;;;11.90;99.90;;;;;;5034638;28;20014;-66
2022/07/11 09:05:27;;;;;;;6.45;2.15;;;11.90;99.90;;;;;;5029679;28;20022;-67
2022/07/11 09:07:54;;;;;;;6.38;1.92;;;11.80;99.90;;;;;;5035139;28;20033;-68
2022/07/11 09:10:22;;;;;;;5.78;2.35;;;11.70;99.90;;;;;;5031223;28;20050;-67
2022/07/11 09:13:01;;;;;;;8.85;2.53;;;11.70;99.90;;;;;;5030819;28;20026;-67
2022/07/11 09:15:35;;;;;;;9.50;3.33;;;11.60;99.90;;;;;;5034833;28;20041;-67
2022/07/11 09:18:03;;;;;;;8.87;2.87;;;11.60;99.90;;;;;;5035261;28;20026;-67
2022/07/11 09:26:33;;;;;;;11.90;5.80;;;11.80;99.90;;;;;;5031592;28;20065;-67
2022/07/11 09:29:08;;;;;;;11.25;6.10;;;11.90;99.90;;;;;;5023081;28;20022;-69
2022/07/11 09:31:37;;;;;;;13.93;7.97;;;11.90;99.90;;;;;;5027351;28;20018;-69
2022/07/11 09:34:11;;;;;;;16.05;7.90;;;11.90;99.90;;;;;;5026989;28;20268;-69
2022/07/11 09:36:55;;;;;;;10.35;6.88;;;11.90;99.90;;;;;;5035713;28;20041;-69
2022/07/11 09:39:25;;;;;;;11.73;6.97;;;11.80;99.90;;;;;;5034365;28;20089;-68
2022/07/11 09:41:53;;;;;;;14.95;7.63;;;11.80;99.90;;;;;;5031255;28;20014;-68
2022/07/11 09:44:24;;;;;;;14.98;7.65;;;11.70;99.90;;;;;;5036065;28;20010;-68
2022/07/11 09:46:52;;;;;;;14.32;6.93;;;11.70;99.90;;;;;;5028535;28;20064;-68
2022/07/11 09:49:40;;;;;;;11.15;5.95;;;11.70;99.90;;;;;;5029419;28;20010;-68
2022/07/11 09:52:13;;;;;;;18.08;6.32;;;11.70;99.90;;;;;;5034151;28;20041;-68
2022/07/11 09:55:01;;;;;;;14.68;5.90;;;11.80;99.90;;;;;;5033464;28;20020;-68
2022/07/11 09:57:37;;;;;;;10.45;5.07;;;11.80;99.90;;;;;;5027973;28;20517;-68
2022/07/11 10:00:10;;;;;;;9.68;4.80;;;11.80;99.90;;;;;;5029043;28;20006;-68
2022/07/11 10:02:37;;;;;;;13.20;4.80;;;11.80;99.90;;;;;;5031487;28;20034;-67
2022/07/11 10:05:06;;;;;;;11.50;4.32;;;11.80;99.90;;;;;;5034592;28;20030;-68
2022/07/11 10:07:33;;;;;;;11.43;4.88;;;11.90;99.90;;;;;;5033029;28;20052;-67
2022/07/11 10:10:03;;;;;;;11.70;5.07;;;11.90;99.90;;;;;;5033659;28;20040;-67
2022/07/11 10:12:32;;;;;;;17.58;6.60;;;11.90;99.90;;;;;;5034720;28;20034;-67
2022/07/11 10:15:06;;;;;;;12.77;5.15;;;11.90;99.90;;;;;;5036748;28;20026;-68
2022/07/11 10:17:49;;;;;;;11.13;5.95;;;12.00;99.90;;;;;;5035890;28;20038;-67
2022/07/11 10:20:54;;;;;;;12.65;6.50;;;12.00;99.90;;;;;;5036976;28;20026;-67
2022/07/11 10:23:24;;;;;;;12.02;4.95;;;12.00;99.90;;;;;;5032130;28;20061;-68
2022/07/11 10:26:08;;;;;;;11.52;4.03;;;12.00;99.90;;;;;;5034740;28;20034;-68
2022/07/11 10:28:48;;;;;;;9.48;5.18;;;11.90;99.90;;;;;;5033662;28;20014;-68
2022/07/11 10:31:23;;;;;;;17.10;6.20;;;11.90;99.90;;;;;;5046957;28;20058;-68
2022/07/11 10:34:16;;;;;;;10.52;4.60;;;11.90;99.90;;;;;;5031431;28;20014;-67
2022/07/11 10:36:44;;;;;;;12.88;4.75;;;11.80;99.90;;;;;;5031544;28;20007;-68
2022/07/11 10:39:18;;;;;;;13.20;5.30;;;11.90;99.90;;;;;;5035884;28;20026;-68
2022/07/11 10:41:48;;;;;;;8.23;4.27;;;11.80;99.90;;;;;;5037038;28;20089;-66
2022/07/11 10:44:15;;;;;;;11.18;5.00;;;11.80;99.90;;;;;;5033654;28;20110;-68
2022/07/11 10:46:43;;;;;;;10.10;5.65;;;11.80;99.90;;;;;;5030075;28;20053;-67
2022/07/11 10:49:31;;;;;;;12.85;5.30;;;11.70;99.90;;;;;;5033124;28;20120;-67
2022/07/11 10:52:09;;;;;;;9.07;5.45;;;11.70;99.90;;;;;;5031021;28;20018;-67
2022/07/11 10:55:14;;;;;;;11.38;7.72;;;11.60;99.90;;;;;;5030377;28;20031;-67
2022/07/11 10:58:06;;;;;;;13.25;7.72;;;11.60;99.90;;;;;;5033327;28;20028;-68
2022/07/11 11:00:34;;;;;;;12.15;6.00;;;11.60;99.90;;;;;;5035140;28;20104;-67
2022/07/11 11:03:10;;;;;;;12.75;5.93;;;11.60;99.90;;;;;;5032681;28;20069;-67
2022/07/11 11:05:54;;;;;;;10.45;5.47;;;11.60;99.90;;;;;;5032328;28;20049;-68
2022/07/11 11:08:36;;;;;;;11.73;5.70;;;11.60;99.90;;;;;;5031489;28;20017;-67
2022/07/11 11:11:36;;;;;;;11.23;6.78;;;11.60;99.90;;;;;;5033745;28;20017;-67
2022/07/11 11:14:22;;;;;;;10.05;4.90;;;11.60;99.90;;;;;;5015381;28;20045;-66
2022/07/11 11:16:50;;;;;;;12.90;7.60;;;11.60;99.90;;;;;;5025778;28;20022;-67
2022/07/11 11:19:45;;;;;;;20.27;9.10;;;11.60;99.90;;;;;;5029991;28;20018;-67
2022/07/11 11:22:16;;;;;;;13.65;8.07;;;11.60;99.90;;;;;;5030267;28;20017;-68
2022/07/11 11:24:48;;;;;;;24.17;9.38;;;11.60;99.90;;;;;;5031624;28;20101;-68
2022/07/11 11:27:23;;;;;;;14.77;8.10;;;11.50;99.90;;;;;;5029400;28;20030;-69
2022/07/11 11:29:53;;;;;;;12.52;9.00;;;11.60;99.90;;;;;;5028698;28;20025;-68
2022/07/11 11:32:30;;;;;;;14.18;7.60;;;11.50;99.90;;;;;;5033224;28;20014;-68
2022/07/11 11:34:59;;;;;;;14.40;9.02;;;11.50;99.90;;;;;;5034346;28;20006;-69
2022/07/11 11:37:26;;;;;;;13.93;8.65;;;11.40;99.90;;;;;;5026489;28;20014;-67
2022/07/11 11:39:59;;;;;;;12.50;7.13;;;11.40;99.90;;;;;;5028341;28;20032;-67
2022/07/11 11:42:30;;;;;;;15.07;8.75;;;11.30;99.90;;;;;;5030483;28;20081;-67
2022/07/11 11:45:01;;;;;;;11.98;9.25;;;11.30;99.90;;;;;;5029813;28;20044;-67
2022/07/11 11:47:32;;;;;;;14.68;8.93;;;11.40;99.90;;;;;;5024591;28;20030;-66
2022/07/11 11:50:00;;;;;;;21.92;12.02;;;11.30;99.90;;;;;;5028999;28;20029;-67
2022/07/11 11:52:29;;;;;;;19.13;11.30;;;11.20;99.90;;;;;;5030283;28;20045;-68
2022/07/11 11:54:58;;;;;;;20.40;10.15;;;11.10;99.90;;;;;;5027349;28;20045;-68
2022/07/11 11:57:28;;;;;;;16.58;10.07;;;11.10;99.90;;;;;;5025156;28;20031;-68
2022/07/11 11:59:56;;;;;;;17.58;9.02;;;11.00;99.90;;;;;;5018419;28;20038;-68
2022/07/11 12:02:31;;;;;;;15.32;8.35;;;10.80;99.90;;;;;;5028476;28;20026;-68
2022/07/11 12:04:59;;;;;;;16.45;8.52;;;10.80;99.90;;;;;;5029049;28;20034;-68
2022/07/11 12:07:30;;;;;;;15.88;8.70;;;10.80;99.90;;;;;;5035848;28;20102;-68
2022/07/11 12:10:04;;;;;;;15.52;9.45;;;10.80;99.90;;;;;;5026720;28;20029;-68
2022/07/11 12:12:43;;;;;;;20.42;10.35;;;10.90;99.90;;;;;;5027689;28;20148;-68
2022/07/11 12:15:31;;;;;;;15.93;9.57;;;10.80;99.90;;;;;;5019974;28;20027;-68
2022/07/11 12:18:00;;;;;;;20.20;10.93;;;10.70;99.90;;;;;;5025069;28;20017;-67
2022/07/11 12:20:42;;;;;;;19.15;11.00;;;10.70;99.90;;;;;;5037276;28;20026;-67
2022/07/11 12:23:17;;;;;;;17.27;9.88;;;10.80;99.90;;;;;;5036999;28;20033;-68
2022/07/11 12:25:44;;;;;;;;;;;10.90;99.90;;;;;;5025472;28;20042;-66
2022/07/11 12:28:11;;;;;;;25.45;11.48;;;10.80;99.90;;;;;;5035204;28;19932;-67
2022/07/11 12:30:39;;;;;;;19.02;10.45;;;10.80;99.90;;;;;;5035827;28;20022;-67
2022/07/11 12:33:11;;;;;;;19.50;11.35;;;10.70;99.90;;;;;;5035644;28;20026;-67
2022/07/11 12:36:00;;;;;;;20.90;11.02;;;10.80;99.90;;;;;;5032263;28;20014;-67
2022/07/11 12:38:53;;;;;;;22.52;11.80;;;10.70;99.90;;;;;;5030655;28;20014;-68
2022/07/11 12:41:21;;;;;;;21.60;12.82;;;10.70;99.90;;;;;;5029483;28;20079;-67
2022/07/11 12:46:37;;;;;;;24.05;14.50;;;10.60;99.90;;;;;;5031983;28;20044;-68
2022/07/11 12:49:06;;;;;;;25.42;13.95;;;10.60;99.90;;;;;;5035953;28;20006;-67
2022/07/11 12:51:42;;;;;;;22.00;14.07;;;10.60;99.90;;;;;;5031407;28;20034;-68
2022/07/11 12:54:16;;;;;;;23.92;13.57;;;10.60;99.90;;;;;;5033129;28;20082;-67
2022/07/11 12:56:57;;;;;;;22.73;13.38;;;10.60;99.90;;;;;;5021569;28;20011;-67
2022/07/11 12:59:28;;;;;;;30.75;13.82;;;10.60;99.90;;;;;;5019618;28;20022;-68
2022/07/11 13:02:04;;;;;;;24.00;14.30;;;10.60;99.90;;;;;;5037189;28;20018;-68
2022/07/11 13:04:51;;;;;;;26.17;13.43;;;10.60;99.90;;;;;;5031679;28;20045;-68
2022/07/11 13:10:19;;;;;;;25.17;12.68;;;10.50;99.90;;;;;;5030392;28;20022;-67
2022/07/11 13:12:49;;;;;;;28.67;13.88;;;10.60;99.90;;;;;;5031543;28;20038;-67
2022/07/11 13:15:17;;;;;;;22.35;13.68;;;10.60;99.90;;;;;;5029396;28;20011;-67